Time;durP1;ratioP1;P1;durP2;ratioP2;P2;SDS_P1;SDS_P2;PMS_P1;PMS_P2;Temp;Humidity;BMP_temperature;BMP_pressure;BME280_temperature;BME280_humidity;BME280_pressure;Samples;Min_cycle;Max_cycle;Signal;HPM_P1;HPM_P2
2023/09/19 00:02:08;;;;;;;2.40;0.90;;;19.80;99.90;;;;;;5065540;28;20201;-62
2023/09/19 00:04:39;;;;;;;1.40;0.70;;;19.80;99.90;;;;;;5065725;28;20204;-62
2023/09/19 00:07:06;;;;;;;1.77;1.02;;;19.80;99.90;;;;;;5054607;28;20577;-62
2023/09/19 00:09:37;;;;;;;1.52;0.90;;;19.90;99.90;;;;;;5062110;28;20229;-62
2023/09/19 00:12:04;;;;;;;1.35;0.88;;;19.90;99.90;;;;;;5065547;28;20201;-63
2023/09/19 00:14:34;;;;;;;1.67;1.00;;;19.90;99.90;;;;;;5065308;28;20204;-63
2023/09/19 00:17:00;;;;;;;2.05;0.85;;;19.90;99.90;;;;;;5053692;28;20201;-62
2023/09/19 00:19:27;;;;;;;1.13;0.73;;;19.90;99.90;;;;;;5061813;28;20197;-62
2023/09/19 00:21:56;;;;;;;2.92;1.00;;;19.80;99.90;;;;;;5063340;28;20206;-62
2023/09/19 00:24:23;;;;;;;0.82;0.75;;;19.80;99.90;;;;;;5065151;28;20210;-62
2023/09/19 00:26:50;;;;;;;1.05;0.55;;;19.70;99.90;;;;;;5063291;28;20208;-62
2023/09/19 00:29:17;;;;;;;5.00;0.90;;;19.70;99.90;;;;;;5061709;28;20226;-62
2023/09/19 00:31:44;;;;;;;2.08;0.95;;;19.60;99.90;;;;;;5062621;28;20324;-62
2023/09/19 00:34:11;;;;;;;2.03;1.10;;;19.60;99.90;;;;;;5064622;28;20216;-62
2023/09/19 00:36:39;;;;;;;2.72;0.73;;;19.60;99.90;;;;;;5064705;28;20287;-61
2023/09/19 00:39:08;;;;;;;2.78;1.00;;;19.60;99.90;;;;;;5061554;28;20204;-61
2023/09/19 00:41:36;;;;;;;0.77;0.63;;;19.60;99.90;;;;;;5061309;28;20709;-61
2023/09/19 00:44:03;;;;;;;1.00;0.60;;;19.60;99.90;;;;;;5053115;28;20242;-62
2023/09/19 00:46:32;;;;;;;1.55;0.68;;;19.50;99.90;;;;;;5061279;28;20672;-62
2023/09/19 00:48:59;;;;;;;1.77;1.00;;;19.40;99.90;;;;;;5064305;28;20606;-63
2023/09/19 00:51:27;;;;;;;1.73;0.88;;;19.40;99.90;;;;;;5064624;28;20237;-63
2023/09/19 00:53:54;;;;;;;2.13;0.80;;;19.40;99.90;;;;;;5062103;28;20213;-62
2023/09/19 00:56:23;;;;;;;0.75;0.60;;;19.30;99.90;;;;;;5061156;28;20214;-62
2023/09/19 00:58:49;;;;;;;0.88;0.73;;;19.20;99.90;;;;;;5062515;28;20210;-62
2023/09/19 01:01:16;;;;;;;0.60;0.60;;;19.10;99.90;;;;;;5064459;28;20227;-62
2023/09/19 01:03:44;;;;;;;1.63;0.75;;;19.10;99.90;;;;;;5063294;28;20258;-62
2023/09/19 01:06:12;;;;;;;1.48;0.85;;;19.20;99.90;;;;;;5061141;28;20210;-62
2023/09/19 01:08:39;;;;;;;1.70;0.60;;;19.10;99.90;;;;;;5061048;28;20216;-63
2023/09/19 01:11:12;;;;;;;2.35;0.88;;;19.10;99.90;;;;;;5063801;28;20300;-62
2023/09/19 01:13:49;;;;;;;2.03;0.70;;;19.20;99.90;;;;;;5063494;28;20217;-63
2023/09/19 01:16:28;;;;;;;1.27;0.93;;;19.20;99.90;;;;;;5060626;28;20216;-62
2023/09/19 01:19:08;;;;;;;2.35;0.70;;;19.30;99.90;;;;;;5063164;28;20217;-63
2023/09/19 01:21:44;;;;;;;1.17;0.70;;;19.30;99.90;;;;;;5063879;28;20627;-63
2023/09/19 01:24:26;;;;;;;1.10;0.80;;;19.30;99.90;;;;;;5053303;28;20263;-62
2023/09/19 01:27:14;;;;;;;3.05;0.80;;;19.20;99.90;;;;;;5063924;28;20206;-63
2023/09/19 01:29:46;;;;;;;1.40;0.90;;;19.30;99.90;;;;;;5064606;28;20232;-63
2023/09/19 01:32:21;;;;;;;2.03;0.57;;;19.30;99.90;;;;;;5060480;28;20631;-63
2023/09/19 01:34:49;;;;;;;2.40;0.80;;;19.30;99.90;;;;;;5061748;28;20205;-63
2023/09/19 01:37:19;;;;;;;1.08;0.70;;;19.30;99.90;;;;;;5064078;28;20211;-63
2023/09/19 01:39:49;;;;;;;0.68;0.60;;;19.30;99.90;;;;;;5062821;28;20224;-63
2023/09/19 01:42:25;;;;;;;3.33;0.80;;;19.30;99.90;;;;;;5060607;28;20238;-63
2023/09/19 01:45:00;;;;;;;2.25;0.70;;;19.30;99.90;;;;;;5062166;28;20205;-62
2023/09/19 01:47:35;;;;;;;1.75;0.80;;;19.30;99.90;;;;;;5063950;28;20670;-62
2023/09/19 01:50:12;;;;;;;1.98;0.80;;;19.30;99.90;;;;;;5060357;28;20221;-63
2023/09/19 01:52:44;;;;;;;2.15;0.60;;;19.30;99.90;;;;;;5059921;28;20201;-63
2023/09/19 01:55:17;;;;;;;2.35;0.57;;;19.30;99.90;;;;;;5063064;28;20201;-63
2023/09/19 01:57:53;;;;;;;0.82;0.60;;;19.30;99.90;;;;;;5063574;28;20205;-63
2023/09/19 02:00:21;;;;;;;2.03;0.77;;;19.30;99.90;;;;;;5063385;28;20781;-62
2023/09/19 02:02:52;;;;;;;0.85;0.60;;;19.30;99.90;;;;;;5061992;28;20259;-63
2023/09/19 02:05:24;;;;;;;1.60;0.90;;;19.30;99.90;;;;;;5059796;28;20663;-62
2023/09/19 02:07:51;;;;;;;1.30;0.60;;;19.30;99.90;;;;;;5061309;28;20638;-63
2023/09/19 02:10:18;;;;;;;0.57;0.57;;;19.20;99.90;;;;;;5063325;28;20347;-63
2023/09/19 02:12:44;;;;;;;1.48;0.70;;;19.30;99.90;;;;;;5062277;28;20213;-62
2023/09/19 02:15:11;;;;;;;1.70;0.70;;;19.20;99.90;;;;;;5059936;28;20296;-63
2023/09/19 02:17:37;;;;;;;1.05;0.70;;;19.20;99.90;;;;;;5059963;28;20209;-64
2023/09/19 02:20:14;;;;;;;1.63;0.80;;;19.30;99.90;;;;;;5062959;28;20274;-63
2023/09/19 02:22:41;;;;;;;1.67;0.80;;;19.30;99.90;;;;;;5062811;28;20207;-62
2023/09/19 02:25:08;;;;;;;0.70;0.60;;;19.30;99.90;;;;;;5059454;28;20201;-62
2023/09/19 02:27:35;;;;;;;1.20;0.88;;;19.20;99.90;;;;;;5059757;28;20209;-63
2023/09/19 02:30:04;;;;;;;0.80;0.73;;;19.20;99.90;;;;;;5062448;28;20217;-63
2023/09/19 02:32:31;;;;;;;1.88;0.80;;;19.10;99.90;;;;;;5062589;28;20207;-63
2023/09/19 02:34:58;;;;;;;1.60;0.82;;;19.10;99.90;;;;;;5059858;28;20211;-63
2023/09/19 02:37:26;;;;;;;1.27;0.73;;;19.00;99.90;;;;;;5059528;28;20216;-63
2023/09/19 02:39:53;;;;;;;2.13;1.10;;;18.90;99.90;;;;;;5061054;28;20248;-63
2023/09/19 02:42:20;;;;;;;0.70;0.52;;;18.90;99.90;;;;;;5063458;28;20284;-63
2023/09/19 02:44:48;;;;;;;1.17;0.73;;;18.70;99.90;;;;;;5061610;28;20300;-63
2023/09/19 02:47:16;;;;;;;1.55;1.20;;;18.70;99.90;;;;;;5059958;28;20213;-63
2023/09/19 02:49:43;;;;;;;1.23;0.80;;;18.60;99.90;;;;;;5059969;28;20308;-63
2023/09/19 02:52:11;;;;;;;1.58;1.33;;;18.60;99.90;;;;;;5063332;28;20296;-63
2023/09/19 02:54:39;;;;;;;2.10;1.33;;;18.50;99.90;;;;;;5063454;28;20227;-63
2023/09/19 02:57:07;;;;;;;1.73;0.82;;;18.50;99.90;;;;;;5051682;28;20292;-62
2023/09/19 02:59:36;;;;;;;1.30;0.80;;;18.50;99.90;;;;;;5059135;28;20217;-63
2023/09/19 03:02:04;;;;;;;1.25;0.60;;;18.50;99.90;;;;;;5061875;28;20651;-63
2023/09/19 03:04:33;;;;;;;1.20;0.90;;;18.40;99.90;;;;;;5062368;28;20209;-63
2023/09/19 03:07:01;;;;;;;1.42;1.17;;;18.30;99.90;;;;;;5059719;28;20824;-63
2023/09/19 03:09:27;;;;;;;3.00;0.77;;;18.40;99.90;;;;;;5058704;28;20249;-63
2023/09/19 03:11:55;;;;;;;0.85;0.80;;;18.40;99.90;;;;;;5060310;28;20205;-63
2023/09/19 03:14:23;;;;;;;1.52;0.80;;;18.50;99.90;;;;;;5061860;28;20585;-63
2023/09/19 03:16:52;;;;;;;2.58;0.77;;;18.50;99.90;;;;;;5060886;28;20661;-63
2023/09/19 03:19:20;;;;;;;2.28;0.90;;;18.70;99.90;;;;;;5059150;28;20259;-63
2023/09/19 03:21:49;;;;;;;2.05;0.93;;;18.60;99.90;;;;;;5059705;28;20244;-63
2023/09/19 03:24:16;;;;;;;1.45;0.90;;;18.90;99.90;;;;;;5062372;28;20208;-64
2023/09/19 03:26:42;;;;;;;2.70;1.10;;;18.90;99.90;;;;;;5062099;28;20301;-62
2023/09/19 03:29:11;;;;;;;3.33;0.98;;;19.00;99.90;;;;;;5059304;28;20210;-62
2023/09/19 03:31:37;;;;;;;2.40;1.90;;;19.00;99.90;;;;;;5059666;28;20232;-62
2023/09/19 03:34:04;;;;;;;1.15;0.93;;;19.10;99.90;;;;;;5062083;28;20292;-62
2023/09/19 03:36:33;;;;;;;2.08;0.82;;;19.20;99.90;;;;;;5062483;28;20565;-62
2023/09/19 03:38:59;;;;;;;3.78;2.47;;;19.20;99.90;;;;;;5059492;28;20670;-62
2023/09/19 03:41:26;;;;;;;2.33;1.98;;;19.20;99.90;;;;;;5058544;28;20226;-62
2023/09/19 03:43:53;;;;;;;1.30;0.60;;;19.30;99.90;;;;;;5059624;28;20679;-62
2023/09/19 03:46:21;;;;;;;1.02;0.80;;;19.30;99.90;;;;;;5061895;28;20209;-62
2023/09/19 03:48:48;;;;;;;1.52;0.75;;;19.30;99.90;;;;;;5061012;28;20670;-62
2023/09/19 03:51:14;;;;;;;4.75;2.80;;;19.30;99.90;;;;;;5058181;28;20738;-62
2023/09/19 03:53:41;;;;;;;7.18;1.58;;;19.30;99.90;;;;;;5058575;28;20267;-62
2023/09/19 03:56:08;;;;;;;2.33;1.90;;;19.30;99.90;;;;;;5050896;28;20209;-62
2023/09/19 03:58:38;;;;;;;2.42;1.02;;;19.20;99.90;;;;;;5062146;28;20205;-62
2023/09/19 04:01:06;;;;;;;1.95;1.38;;;19.30;99.90;;;;;;5065020;28;20217;-63
2023/09/19 04:03:45;;;;;;;4.78;2.22;;;19.30;99.90;;;;;;5065518;28;20209;-63
2023/09/19 04:06:12;;;;;;;2.40;1.13;;;19.30;99.90;;;;;;5054498;28;20213;-63
2023/09/19 04:08:39;;;;;;;3.08;1.30;;;19.30;99.90;;;;;;5062320;28;20237;-64
2023/09/19 04:11:06;;;;;;;2.53;1.10;;;19.30;99.90;;;;;;5065005;28;20232;-63
2023/09/19 04:13:33;;;;;;;3.65;2.17;;;19.30;99.90;;;;;;5065224;28;20451;-63
2023/09/19 04:15:59;;;;;;;2.80;1.35;;;19.30;99.90;;;;;;5063262;28;20204;-62
2023/09/19 04:18:26;;;;;;;1.77;1.38;;;19.10;99.90;;;;;;5061819;28;20563;-62
2023/09/19 04:20:55;;;;;;;1.98;1.08;;;19.00;99.90;;;;;;5062866;28;20937;-62
2023/09/19 04:23:22;;;;;;;1.13;0.90;;;18.90;99.90;;;;;;5065068;28;20216;-62
2023/09/19 04:25:49;;;;;;;2.22;1.02;;;18.90;99.90;;;;;;5064384;28;20271;-62
2023/09/19 04:28:16;;;;;;;3.90;1.17;;;18.90;99.90;;;;;;5061514;28;20205;-62
2023/09/19 04:30:43;;;;;;;1.25;1.15;;;18.90;99.90;;;;;;5061368;28;20257;-62
2023/09/19 04:33:11;;;;;;;3.15;1.45;;;18.80;99.90;;;;;;5064957;28;20212;-62
2023/09/19 04:35:38;;;;;;;4.03;1.10;;;18.80;99.90;;;;;;5064782;28;20220;-62
2023/09/19 04:38:07;;;;;;;2.00;1.20;;;18.80;99.90;;;;;;5061520;28;20716;-62
2023/09/19 04:40:33;;;;;;;3.78;1.02;;;18.90;99.90;;;;;;5061443;28;20233;-62
2023/09/19 04:43:00;;;;;;;3.00;1.90;;;18.90;99.90;;;;;;5063641;28;20201;-62
2023/09/19 04:45:28;;;;;;;2.03;1.20;;;18.90;99.90;;;;;;5064548;28;20208;-62
2023/09/19 04:47:56;;;;;;;2.78;1.05;;;18.90;99.90;;;;;;5062774;28;20217;-62
2023/09/19 04:50:24;;;;;;;1.08;0.75;;;18.90;99.90;;;;;;5060660;28;20236;-62
2023/09/19 04:52:51;;;;;;;2.10;1.90;;;18.90;99.90;;;;;;5061719;28;20210;-62
2023/09/19 04:55:19;;;;;;;6.10;2.55;;;18.80;99.90;;;;;;5064584;28;20240;-62
2023/09/19 04:57:48;;;;;;;1.33;1.02;;;18.90;99.90;;;;;;5063659;28;20208;-62
2023/09/19 05:00:16;;;;;;;2.00;1.40;;;18.80;99.90;;;;;;5060859;28;20236;-64
2023/09/19 05:02:44;;;;;;;2.40;1.40;;;18.60;99.90;;;;;;5060488;28;20577;-62
2023/09/19 05:05:11;;;;;;;3.72;1.75;;;18.60;99.90;;;;;;5052581;28;20206;-63
2023/09/19 05:07:40;;;;;;;3.70;2.17;;;18.60;99.90;;;;;;5060181;28;20205;-63
2023/09/19 05:10:08;;;;;;;2.58;1.50;;;18.70;99.90;;;;;;5063411;28;20221;-62
2023/09/19 05:12:36;;;;;;;3.72;1.40;;;18.80;99.90;;;;;;5063652;28;20212;-63
2023/09/19 05:15:04;;;;;;;2.83;1.60;;;19.00;99.90;;;;;;5060719;28;20684;-62
2023/09/19 05:17:32;;;;;;;4.22;1.35;;;18.90;99.90;;;;;;5060498;28;20217;-62
2023/09/19 05:20:00;;;;;;;3.15;1.38;;;19.00;99.90;;;;;;5062570;28;20252;-62
2023/09/19 05:22:28;;;;;;;2.55;1.17;;;19.00;99.90;;;;;;5063906;28;20284;-62
2023/09/19 05:24:55;;;;;;;4.55;1.48;;;18.90;99.90;;;;;;5062190;28;20589;-61
2023/09/19 05:27:22;;;;;;;2.60;1.40;;;18.80;99.90;;;;;;5060312;28;20216;-62
2023/09/19 05:29:52;;;;;;;3.15;1.60;;;18.80;99.90;;;;;;5060409;28;20236;-61
2023/09/19 05:32:19;;;;;;;2.65;1.35;;;18.90;99.90;;;;;;5063893;28;20228;-62
2023/09/19 05:34:46;;;;;;;1.13;0.95;;;18.90;99.90;;;;;;5063586;28;20205;-63
2023/09/19 05:37:15;;;;;;;1.45;1.05;;;19.00;99.90;;;;;;5060236;28;20588;-63
2023/09/19 05:39:42;;;;;;;2.72;1.25;;;19.00;99.90;;;;;;5060097;28;20604;-68
2023/09/19 05:42:09;;;;;;;3.03;1.20;;;19.10;99.90;;;;;;5063197;28;20211;-63
2023/09/19 05:44:36;;;;;;;3.53;1.40;;;19.10;99.90;;;;;;5063473;28;20227;-63
2023/09/19 05:47:05;;;;;;;2.97;1.55;;;19.00;99.90;;;;;;5061314;28;20209;-63
2023/09/19 05:49:31;;;;;;;3.78;2.10;;;19.10;99.90;;;;;;5059697;28;20209;-63
2023/09/19 05:51:59;;;;;;;7.30;2.20;;;19.10;99.90;;;;;;5061545;28;20225;-62
2023/09/19 05:54:25;;;;;;;5.10;2.03;;;18.90;99.90;;;;;;5062955;28;20586;-62
2023/09/19 05:56:53;;;;;;;2.22;1.17;;;18.80;99.90;;;;;;5062418;28;20215;-62
2023/09/19 05:59:19;;;;;;;4.35;1.52;;;18.60;99.90;;;;;;5059950;28;20202;-62
2023/09/19 06:01:46;;;;;;;3.47;1.48;;;18.60;99.90;;;;;;5059985;28;20210;-63
2023/09/19 06:04:14;;;;;;;3.67;1.38;;;18.40;99.90;;;;;;5063044;28;20292;-62
2023/09/19 06:06:41;;;;;;;1.80;1.35;;;18.40;99.90;;;;;;5063081;28;20213;-62
2023/09/19 06:09:09;;;;;;;3.33;2.63;;;18.40;99.90;;;;;;5059912;28;20206;-63
2023/09/19 06:11:35;;;;;;;2.33;1.40;;;18.50;99.90;;;;;;5059391;28;20312;-62
2023/09/19 06:14:02;;;;;;;3.53;1.20;;;18.60;99.90;;;;;;5061376;28;20672;-63
2023/09/19 06:16:29;;;;;;;3.17;1.42;;;18.60;99.90;;;;;;5063298;28;20298;-63
2023/09/19 06:18:56;;;;;;;2.60;1.27;;;18.70;99.90;;;;;;5061798;28;20205;-62
2023/09/19 06:21:25;;;;;;;6.68;1.48;;;18.80;99.90;;;;;;5058652;28;20222;-62
2023/09/19 06:23:52;;;;;;;2.28;1.50;;;18.80;99.90;;;;;;5059730;28;20595;-62
2023/09/19 06:26:18;;;;;;;4.68;1.30;;;18.80;99.90;;;;;;5063208;28;20266;-62
2023/09/19 06:28:45;;;;;;;4.13;1.75;;;18.70;99.90;;;;;;5062495;28;20408;-62
2023/09/19 06:31:13;;;;;;;2.58;1.40;;;18.60;99.90;;;;;;5062583;28;20233;-62
2023/09/19 06:33:40;;;;;;;3.38;1.27;;;18.40;99.90;;;;;;5062334;28;20654;-62
2023/09/19 06:36:07;;;;;;;2.00;1.63;;;18.40;99.90;;;;;;5059776;28;20262;-62
2023/09/19 06:38:36;;;;;;;2.47;1.65;;;18.30;99.90;;;;;;5058878;28;20205;-62
2023/09/19 06:41:04;;;;;;;2.10;1.50;;;18.30;99.90;;;;;;5061148;28;20380;-62
2023/09/19 06:43:32;;;;;;;3.95;1.58;;;18.40;99.90;;;;;;5062500;28;20209;-62
2023/09/19 06:45:59;;;;;;;4.05;2.08;;;18.40;99.90;;;;;;5060990;28;20252;-63
2023/09/19 06:48:26;;;;;;;5.07;2.00;;;18.40;99.90;;;;;;5059909;28;20216;-60
2023/09/19 06:50:54;;;;;;;1.92;1.55;;;18.40;99.90;;;;;;5060741;28;20229;-61
2023/09/19 06:53:23;;;;;;;5.85;2.03;;;18.50;99.90;;;;;;5063429;28;20239;-62
2023/09/19 06:55:51;;;;;;;6.13;2.22;;;18.70;99.90;;;;;;5063090;28;20452;-61
2023/09/19 06:58:19;;;;;;;4.90;2.67;;;18.90;99.90;;;;;;5059962;28;20213;-59
2023/09/19 07:00:46;;;;;;;7.35;3.10;;;19.10;99.90;;;;;;5059828;28;20677;-60
2023/09/19 07:03:16;;;;;;;3.95;1.50;;;19.30;99.90;;;;;;5062424;28;20204;-64
2023/09/19 07:05:43;;;;;;;5.97;3.17;;;19.50;99.90;;;;;;5058697;28;20209;-60
2023/09/19 07:08:12;;;;;;;3.88;2.15;;;19.80;99.90;;;;;;5058895;28;20259;-59
2023/09/19 07:10:40;;;;;;;6.75;2.08;;;19.90;99.90;;;;;;5059020;28;20775;-61
2023/09/19 07:13:10;;;;;;;6.68;1.88;;;20.10;99.90;;;;;;5061672;28;20686;-60
2023/09/19 07:15:41;;;;;;;5.25;3.17;;;20.40;99.90;;;;;;5062707;28;20243;-61
2023/09/19 07:18:10;;;;;;;6.78;2.58;;;20.70;99.90;;;;;;5059302;28;20212;-61
2023/09/19 07:20:38;;;;;;;6.28;1.73;;;21.40;99.90;;;;;;5059816;28;20312;-61
2023/09/19 07:23:06;;;;;;;5.15;2.20;;;22.30;99.90;;;;;;5060824;28;20251;-60
2023/09/19 07:25:32;;;;;;;3.08;1.67;;;22.90;99.90;;;;;;5061797;28;20292;-60
2023/09/19 07:28:00;;;;;;;3.00;1.42;;;23.70;99.90;;;;;;5060826;28;20208;-60
2023/09/19 07:30:28;;;;;;;3.20;1.58;;;24.30;99.90;;;;;;5058694;28;20230;-60
2023/09/19 07:32:55;;;;;;;7.63;3.80;;;24.60;99.90;;;;;;5062658;28;20231;-60
2023/09/19 07:35:22;;;;;;;4.20;1.77;;;24.60;99.90;;;;;;5066001;28;20212;-60
2023/09/19 07:37:51;;;;;;;3.72;1.55;;;24.50;99.90;;;;;;5065657;28;20221;-60
2023/09/19 07:40:18;;;;;;;3.10;2.17;;;24.20;99.90;;;;;;5055150;28;20247;-60
2023/09/19 07:42:46;;;;;;;2.60;1.35;;;24.00;99.90;;;;;;5062316;28;20555;-60
2023/09/19 07:45:14;;;;;;;3.65;1.80;;;23.80;99.90;;;;;;5065524;28;20208;-60
2023/09/19 07:47:45;;;;;;;3.97;1.55;;;23.50;99.90;;;;;;5065847;28;20745;-60
2023/09/19 07:50:12;;;;;;;4.03;1.70;;;23.50;99.90;;;;;;5086761;22;20229;-57
2023/09/19 07:52:39;;;;;;;4.70;2.08;;;23.40;99.90;;;;;;5065380;28;20274;-57
2023/09/19 07:55:09;;;;;;;2.50;1.27;;;23.40;99.90;;;;;;5062953;28;20668;-58
2023/09/19 07:57:37;;;;;;;5.70;2.38;;;23.30;99.90;;;;;;5061611;28;20201;-59
2023/09/19 08:00:04;;;;;;;4.93;1.90;;;23.20;99.90;;;;;;5060507;28;20230;-59
2023/09/19 08:02:34;;;;;;;7.55;1.70;;;23.00;99.90;;;;;;5044861;28;20514;-58
2023/09/19 08:05:06;;;;;;;4.85;2.00;;;22.70;99.90;;;;;;5043289;28;20731;-56
2023/09/19 08:07:32;;;;;;;4.78;1.73;;;22.50;99.90;;;;;;5041745;28;20202;-58
2023/09/19 08:09:59;;;;;;;3.53;1.20;;;22.50;99.90;;;;;;5043176;28;20263;-59
2023/09/19 08:12:26;;;;;;;2.20;1.33;;;22.50;99.90;;;;;;5045241;28;20221;-58
2023/09/19 08:14:53;;;;;;;1.58;1.02;;;22.40;99.90;;;;;;5044205;28;20214;-58
2023/09/19 08:17:20;;;;;;;2.08;1.15;;;22.30;99.90;;;;;;5041853;28;20230;-58
2023/09/19 08:19:47;;;;;;;3.97;1.67;;;22.10;99.90;;;;;;5042146;28;20206;-58
2023/09/19 08:22:17;;;;;;;2.85;1.20;;;21.90;99.90;;;;;;5045012;28;20205;-58
2023/09/19 08:24:43;;;;;;;1.63;1.15;;;21.80;99.90;;;;;;5044903;28;20197;-58
2023/09/19 08:27:12;;;;;;;1.98;1.20;;;21.80;99.90;;;;;;5041868;28;20262;-60
2023/09/19 08:29:39;;;;;;;4.57;1.40;;;21.80;99.90;;;;;;5041300;28;20605;-60
2023/09/19 08:32:06;;;;;;;5.30;1.65;;;21.80;99.90;;;;;;5043473;28;20229;-60
2023/09/19 08:34:33;;;;;;;2.20;1.35;;;21.70;99.90;;;;;;5044535;28;20205;-60
2023/09/19 08:37:00;;;;;;;2.95;1.40;;;21.70;99.90;;;;;;5042994;28;20216;-63
2023/09/19 08:39:30;;;;;;;2.40;1.10;;;21.70;99.90;;;;;;5040730;28;20205;-61
2023/09/19 08:41:59;;;;;;;3.10;1.38;;;21.60;99.90;;;;;;5035296;28;20635;-60
2023/09/19 08:44:27;;;;;;;3.05;1.30;;;21.60;99.90;;;;;;5039894;28;20612;-60
2023/09/19 08:46:56;;;;;;;2.58;1.02;;;21.60;99.90;;;;;;5041507;28;20269;-62
2023/09/19 08:49:30;;;;;;;2.38;1.17;;;21.70;99.90;;;;;;5044425;28;20208;-62
2023/09/19 08:52:05;;;;;;;2.80;1.10;;;21.70;99.90;;;;;;5042845;28;20279;-61
2023/09/19 08:54:39;;;;;;;5.57;1.45;;;21.80;99.90;;;;;;5041200;28;20237;-61
2023/09/19 08:57:10;;;;;;;4.45;2.83;;;22.00;99.90;;;;;;5043355;28;20574;-62
2023/09/19 08:59:39;;;;;;;2.40;0.98;;;22.10;99.90;;;;;;5046914;28;20289;-60
2023/09/19 09:02:12;;;;;;;1.25;1.00;;;22.20;99.90;;;;;;5042721;28;20233;-59
2023/09/19 09:04:40;;;;;;;2.33;1.05;;;22.20;99.90;;;;;;5043781;28;20559;-61
2023/09/19 09:07:11;;;;;;;3.45;1.08;;;22.20;99.90;;;;;;5041895;28;20674;-61
2023/09/19 09:09:42;;;;;;;2.20;1.20;;;22.40;99.90;;;;;;5040723;28;20209;-61
2023/09/19 09:12:10;;;;;;;1.55;0.93;;;22.60;99.90;;;;;;5042686;28;20250;-61
2023/09/19 09:14:38;;;;;;;3.15;1.02;;;22.80;99.90;;;;;;5043546;28;20202;-64
2023/09/19 09:17:04;;;;;;;5.75;1.20;;;23.00;99.90;;;;;;5041170;28;20590;-62
2023/09/19 09:19:31;;;;;;;2.50;1.10;;;23.20;99.90;;;;;;5040517;28;20222;-64
2023/09/19 09:22:07;;;;;;;2.25;1.40;;;23.30;99.90;;;;;;5041156;28;20230;-62
2023/09/19 09:24:36;;;;;;;2.20;1.10;;;23.60;99.90;;;;;;5043641;28;20208;-62
2023/09/19 09:27:07;;;;;;;4.53;1.48;;;23.80;99.90;;;;;;5041668;28;20209;-62
2023/09/19 09:29:46;;;;;;;3.22;1.13;;;23.70;99.90;;;;;;5040543;28;20199;-62
2023/09/19 09:32:24;;;;;;;7.25;1.40;;;23.60;99.90;;;;;;5042933;28;20221;-62
2023/09/19 09:34:52;;;;;;;4.47;1.23;;;23.60;99.90;;;;;;5043107;28;20202;-62
2023/09/19 09:37:20;;;;;;;2.33;1.10;;;23.80;99.90;;;;;;5031995;28;20611;-62
2023/09/19 09:39:53;;;;;;;1.77;1.25;;;24.00;99.90;;;;;;5039562;28;20229;-62
2023/09/19 09:42:38;;;;;;;2.33;1.45;;;24.00;99.90;;;;;;5032253;28;20285;-62
2023/09/19 09:45:16;;;;;;;2.50;2.08;;;23.80;99.90;;;;;;5041821;28;20206;-61
2023/09/19 09:47:49;;;;;;;3.47;1.80;;;23.70;99.90;;;;;;5043328;28;20240;-60
2023/09/19 09:50:44;;;;;;;2.53;1.38;;;23.50;99.90;;;;;;5039343;28;20272;-61
2023/09/19 09:53:25;;;;;;;2.60;1.40;;;23.40;99.90;;;;;;5041933;28;20222;-60
2023/09/19 09:55:59;;;;;;;2.03;1.10;;;23.30;99.90;;;;;;5043402;28;20240;-62
2023/09/19 09:58:29;;;;;;;2.15;1.13;;;23.30;99.90;;;;;;5032381;28;20201;-61
2023/09/19 10:00:58;;;;;;;4.20;1.35;;;23.30;99.90;;;;;;5039869;28;20277;-61
2023/09/19 10:03:33;;;;;;;2.08;1.10;;;23.30;99.90;;;;;;5043214;28;20205;-61
2023/09/19 10:06:02;;;;;;;2.65;1.35;;;23.40;99.90;;;;;;5041551;28;20381;-61
2023/09/19 10:08:31;;;;;;;1.83;1.20;;;23.60;99.90;;;;;;5039488;28;20380;-61
2023/09/19 10:11:05;;;;;;;2.20;1.30;;;23.70;99.90;;;;;;5039590;28;20396;-61
2023/09/19 10:13:36;;;;;;;1.27;1.15;;;23.70;99.90;;;;;;5042788;28;20217;-60
2023/09/19 10:16:10;;;;;;;2.72;1.70;;;23.70;99.90;;;;;;5040672;28;20210;-62
2023/09/19 10:18:39;;;;;;;3.63;1.50;;;23.80;99.90;;;;;;5039403;28;20784;-61
2023/09/19 10:21:07;;;;;;;3.17;1.67;;;23.80;99.90;;;;;;5040496;28;20272;-61
2023/09/19 10:23:35;;;;;;;4.13;1.48;;;23.90;99.90;;;;;;5042263;28;20212;-61
2023/09/19 10:26:02;;;;;;;2.47;1.20;;;24.00;99.90;;;;;;5041397;28;20202;-62
2023/09/19 10:28:30;;;;;;;4.47;1.48;;;24.20;99.90;;;;;;5038859;28;20202;-61
2023/09/19 10:31:01;;;;;;;2.65;1.58;;;24.40;99.90;;;;;;5038929;28;20221;-63
2023/09/19 10:33:37;;;;;;;1.67;0.88;;;24.40;99.90;;;;;;5042353;28;20221;-63
2023/09/19 10:36:06;;;;;;;3.80;1.70;;;24.50;99.90;;;;;;5041008;28;20201;-63
2023/09/19 10:38:36;;;;;;;6.18;2.03;;;24.40;99.90;;;;;;5039325;28;20678;-62
2023/09/19 10:41:03;;;;;;;2.50;1.25;;;24.20;99.90;;;;;;5039903;28;20225;-62
2023/09/19 10:43:31;;;;;;;3.13;1.70;;;24.30;99.90;;;;;;5042436;28;20699;-60
2023/09/19 10:46:03;;;;;;;2.70;1.33;;;24.30;99.90;;;;;;5041591;28;20287;-62
2023/09/19 10:48:31;;;;;;;2.08;1.30;;;24.40;99.90;;;;;;5035923;28;20259;-66
2023/09/19 10:51:04;;;;;;;2.92;1.45;;;24.50;99.90;;;;;;5041745;28;20242;-60
2023/09/19 10:53:43;;;;;;;6.07;2.17;;;24.70;99.90;;;;;;5038924;28;20218;-61
2023/09/19 10:56:17;;;;;;;4.57;1.70;;;24.70;99.90;;;;;;5040765;28;20309;-61
2023/09/19 10:58:45;;;;;;;3.63;1.38;;;24.70;99.90;;;;;;5042405;28;20233;-61
2023/09/19 11:01:15;;;;;;;1.75;1.25;;;24.80;99.90;;;;;;5039930;28;20311;-61
2023/09/19 11:03:44;;;;;;;1.40;0.90;;;24.90;99.90;;;;;;5038561;28;20300;-61
2023/09/19 11:06:15;;;;;;;2.83;1.15;;;24.90;99.90;;;;;;5041686;28;20276;-61
2023/09/19 11:09:21;;;;;;;1.95;0.80;;;25.00;99.90;;;;;;5046324;28;20216;-58
2023/09/19 11:11:53;;;;;;;1.13;0.93;;;24.80;99.90;;;;;;5038567;28;20227;-58
2023/09/19 11:14:47;;;;;;;4.22;1.33;;;24.80;99.90;;;;;;5045820;28;20698;-58
2023/09/19 11:17:33;;;;;;;1.35;1.00;;;24.70;99.90;;;;;;4996604;28;20340;-67
2023/09/19 11:20:41;;;;;;;3.58;1.20;;;24.50;99.90;;;;;;5043133;28;20313;-59
2023/09/19 11:23:28;;;;;;;1.45;0.95;;;24.30;99.90;;;;;;5044404;28;20201;-60
2023/09/19 11:25:55;;;;;;;2.05;1.10;;;24.30;99.90;;;;;;5042178;28;20701;-60
2023/09/19 11:28:38;;;;;;;2.22;1.20;;;24.50;99.90;;;;;;5042858;28;20206;-60
2023/09/19 11:31:59;;;;;;;2.50;1.23;;;24.80;99.90;;;;;;5043638;28;20579;-59
2023/09/19 11:34:50;;;;;;;2.40;1.10;;;25.00;99.90;;;;;;5034672;28;20198;-59
2023/09/19 11:38:16;;;;;;;4.30;0.90;;;25.30;99.90;;;;;;5045684;28;20214;-60
2023/09/19 11:40:55;;;;;;;2.10;1.13;;;25.50;99.90;;;;;;5037249;28;20229;-60
2023/09/19 11:43:35;;;;;;;2.25;0.95;;;25.60;99.90;;;;;;5034642;28;20285;-60
2023/09/19 11:46:04;;;;;;;2.97;1.20;;;25.40;99.90;;;;;;5043025;28;20256;-59
2023/09/19 11:48:35;;;;;;;2.13;0.80;;;25.40;99.90;;;;;;5046059;28;20614;-60
2023/09/19 11:51:14;;;;;;;0.95;0.70;;;25.60;99.90;;;;;;5044303;28;20252;-60
2023/09/19 11:53:43;;;;;;;1.95;1.20;;;25.80;99.50;;;;;;5041989;28;20306;-60
2023/09/19 11:56:10;;;;;;;3.40;2.30;;;25.80;99.90;;;;;;5043906;28;20292;-60
2023/09/19 11:58:39;;;;;;;2.17;1.10;;;25.60;99.90;;;;;;5045653;28;20659;-62
2023/09/19 12:01:12;;;;;;;1.73;0.90;;;25.30;99.90;;;;;;5044257;28;20271;-60
2023/09/19 12:03:41;;;;;;;2.38;1.08;;;25.20;99.90;;;;;;5042157;28;20198;-61
2023/09/19 12:06:14;;;;;;;2.33;1.10;;;25.10;99.90;;;;;;5043811;28;20588;-60
2023/09/19 12:08:43;;;;;;;2.00;1.23;;;24.90;99.90;;;;;;5045344;28;20663;-62
2023/09/19 12:11:14;;;;;;;2.03;1.00;;;24.80;99.90;;;;;;5043354;28;20619;-62
2023/09/19 12:13:46;;;;;;;3.10;1.30;;;24.80;99.90;;;;;;5041641;28;20305;-62
2023/09/19 12:16:15;;;;;;;3.28;1.27;;;25.00;99.90;;;;;;5044152;28;20206;-59
2023/09/19 12:18:44;;;;;;;3.15;1.15;;;25.40;99.90;;;;;;5043780;28;20811;-59
2023/09/19 12:21:24;;;;;;;2.22;0.82;;;25.70;99.90;;;;;;5043381;28;20245;-60
2023/09/19 12:24:05;;;;;;;1.98;1.10;;;25.90;99.90;;;;;;5041425;28;20198;-59
2023/09/19 12:26:40;;;;;;;3.38;1.00;;;25.90;99.90;;;;;;5034796;28;20253;-58
2023/09/19 12:29:12;;;;;;;2.00;0.90;;;25.80;99.90;;;;;;5043094;28;20201;-59
2023/09/19 12:31:57;;;;;;;2.40;1.10;;;25.80;99.90;;;;;;5045087;28;20598;-59
2023/09/19 12:34:27;;;;;;;3.38;1.00;;;26.00;99.90;;;;;;5033195;28;20309;-59
2023/09/19 12:37:15;;;;;;;1.80;1.00;;;26.10;99.90;;;;;;5041382;28;20198;-62
2023/09/19 12:39:48;;;;;;;1.40;0.95;;;26.20;99.90;;;;;;5036333;28;20206;-61
2023/09/19 12:42:16;;;;;;;1.83;1.10;;;26.20;99.90;;;;;;5043828;28;20211;-61
2023/09/19 12:44:44;;;;;;;4.63;0.98;;;26.10;99.90;;;;;;5044870;28;20679;-61
2023/09/19 12:47:15;;;;;;;7.30;1.45;;;26.20;99.90;;;;;;5042210;28;20213;-61
2023/09/19 12:50:12;;;;;;;1.63;1.15;;;26.40;99.90;;;;;;5041290;28;20202;-61
2023/09/19 12:52:42;;;;;;;2.15;0.80;;;26.80;99.40;;;;;;5035524;28;20321;-60
2023/09/19 12:55:20;;;;;;;2.50;1.08;;;27.00;98.70;;;;;;5042870;28;20208;-61
2023/09/19 12:57:59;;;;;;;2.78;1.27;;;26.90;98.40;;;;;;5044491;28;20228;-61
2023/09/19 13:00:34;;;;;;;3.20;1.33;;;26.70;98.40;;;;;;5033519;28;20228;-61
2023/09/19 13:03:22;;;;;;;1.75;1.02;;;26.50;98.00;;;;;;5041581;28;20244;-61
2023/09/19 13:05:50;;;;;;;3.17;1.73;;;26.30;98.40;;;;;;5044106;28;20237;-60